createdAt,value
2022-12-18T00:01:34.293Z,75.30
2022-12-18T00:04:03.187Z,81.00
2022-12-18T00:06:30.822Z,75.00
2022-12-18T00:08:59.149Z,70.30
2022-12-18T00:11:29.235Z,73.95
2022-12-18T00:13:57.393Z,67.72
2022-12-18T00:16:26.491Z,60.92
2022-12-18T00:18:55.096Z,65.10
2022-12-18T00:21:22.720Z,67.57
2022-12-18T00:23:50.810Z,65.72
2022-12-18T00:26:23.822Z,64.28
2022-12-18T00:28:51.272Z,66.97
2022-12-18T00:31:21.187Z,74.03
2022-12-18T00:33:49.083Z,73.47
2022-12-18T00:36:24.120Z,78.32
2022-12-18T00:38:50.921Z,78.80
2022-12-18T00:41:38.791Z,92.35
2022-12-18T00:44:06.495Z,72.85
2022-12-18T00:46:33.400Z,79.72
2022-12-18T00:49:00.264Z,77.82
2022-12-18T00:51:27.637Z,79.13
2022-12-18T00:53:54.530Z,70.95
2022-12-18T00:56:21.148Z,87.20
2022-12-18T00:58:47.724Z,79.43
2022-12-18T01:01:14.568Z,80.97
2022-12-18T01:03:42.128Z,76.18
2022-12-18T01:06:10.859Z,71.75
2022-12-18T01:08:37.484Z,70.50
2022-12-18T01:11:19.397Z,63.92
2022-12-18T01:13:46.125Z,67.10
2022-12-18T01:16:14.024Z,61.65
2022-12-18T01:18:41.125Z,59.28
2022-12-18T01:21:17.027Z,60.78
2022-12-18T01:23:43.651Z,57.10
2022-12-18T01:26:13.621Z,61.30
2022-12-18T01:28:41.178Z,50.97
2022-12-18T01:31:34.627Z,53.42
2022-12-18T01:34:02.505Z,57.75
2022-12-18T01:36:32.156Z,53.22
2022-12-18T01:39:01.895Z,52.47
2022-12-18T01:41:49.351Z,45.22
2022-12-18T01:45:13.019Z,50.22
2022-12-18T01:47:52.911Z,44.30
2022-12-18T01:50:43.917Z,38.90
2022-12-18T01:53:19.885Z,42.85
2022-12-18T01:55:51.436Z,46.45
2022-12-18T01:58:19.841Z,47.97
2022-12-18T02:00:46.626Z,43.25
2022-12-18T02:03:13.833Z,45.15
2022-12-18T02:06:10.800Z,56.08
2022-12-18T02:08:49.452Z,50.75
2022-12-18T02:12:11.473Z,41.78
2022-12-18T02:15:01.048Z,44.90
2022-12-18T02:17:52.586Z,42.65
2022-12-18T02:20:26.357Z,40.25
2022-12-18T02:23:48.257Z,35.90
2022-12-18T02:26:34.412Z,36.25
2022-12-18T02:29:11.456Z,46.95
2022-12-18T02:31:44.339Z,38.95
2022-12-18T02:34:13.398Z,38.97
2022-12-18T02:36:43.505Z,51.33
2022-12-18T02:39:12.768Z,42.53
2022-12-18T02:41:40.540Z,34.55
2022-12-18T02:44:14.821Z,62.70
2022-12-18T02:46:49.801Z,226.05
2022-12-18T02:49:42.024Z,202.70
2022-12-18T02:52:42.994Z,208.40
2022-12-18T02:55:33.976Z,136.40
2022-12-18T02:58:47.884Z,68.47
2022-12-18T03:01:22.688Z,62.03
2022-12-18T03:03:56.654Z,51.63
2022-12-18T03:06:51.225Z,61.20
2022-12-18T03:09:27.101Z,63.63
2022-12-18T03:12:16.720Z,63.05
2022-12-18T03:14:46.432Z,60.65
2022-12-18T03:17:18.653Z,63.28
2022-12-18T03:19:48.662Z,56.28
2022-12-18T03:22:17.753Z,63.15
2022-12-18T03:24:47.272Z,59.63
2022-12-18T03:27:18.557Z,60.65
2022-12-18T03:29:50.032Z,53.72
2022-12-18T03:32:28.497Z,53.00
2022-12-18T03:34:58.581Z,50.63
2022-12-18T03:37:25.329Z,51.95
2022-12-18T03:39:52.067Z,57.00
2022-12-18T03:42:33.618Z,58.22
2022-12-18T03:45:14.964Z,58.88
2022-12-18T03:48:18.949Z,51.60
2022-12-18T03:51:22.833Z,46.50
2022-12-18T03:53:59.531Z,48.97
2022-12-18T03:56:34.505Z,53.78
2022-12-18T03:59:05.675Z,52.63
2022-12-18T04:01:39.095Z,49.45
2022-12-18T04:04:08.112Z,61.83
2022-12-18T04:06:35.034Z,53.95
2022-12-18T04:09:01.841Z,63.00
2022-12-18T04:11:28.566Z,60.15
2022-12-18T04:13:59.223Z,60.85
2022-12-18T04:16:28.320Z,59.03
2022-12-18T04:18:55.312Z,62.42
2022-12-18T04:21:22.409Z,60.70
2022-12-18T04:23:49.041Z,60.10
2022-12-18T04:26:15.692Z,61.63
2022-12-18T04:28:42.245Z,65.30
2022-12-18T04:31:09.203Z,51.95
2022-12-18T04:33:36.008Z,54.47
2022-12-18T04:36:02.733Z,59.38
2022-12-18T04:38:29.316Z,54.65
2022-12-18T04:40:55.944Z,58.72
2022-12-18T04:43:22.661Z,60.58
2022-12-18T04:45:49.300Z,58.85
2022-12-18T04:48:15.940Z,60.70
2022-12-18T04:50:42.571Z,66.30
2022-12-18T04:53:09.180Z,52.85
2022-12-18T04:55:36.728Z,68.20
2022-12-18T04:58:03.301Z,61.15
2022-12-18T05:00:29.887Z,63.40
2022-12-18T05:02:56.664Z,60.03
2022-12-18T05:05:23.400Z,64.80
2022-12-18T05:07:50.102Z,66.38
2022-12-18T05:10:16.724Z,62.35
2022-12-18T05:13:01.616Z,60.38
2022-12-18T05:15:32.701Z,74.13
2022-12-18T05:17:59.904Z,61.25
2022-12-18T05:20:28.024Z,63.63
2022-12-18T05:22:55.371Z,72.07
2022-12-18T05:25:22.743Z,70.20
2022-12-18T05:27:49.664Z,78.90
2022-12-18T05:30:17.266Z,73.05
2022-12-18T05:32:44.124Z,93.03
2022-12-18T05:35:11.943Z,73.35
2022-12-18T05:37:42.973Z,82.00
2022-12-18T05:40:10.998Z,80.33
2022-12-18T05:42:37.708Z,73.90
2022-12-18T05:45:05.437Z,80.00
2022-12-18T05:47:32.033Z,79.75
2022-12-18T05:49:58.688Z,76.47
2022-12-18T05:52:25.614Z,99.97
2022-12-18T05:54:52.260Z,100.95
2022-12-18T05:57:18.859Z,81.38
2022-12-18T05:59:45.705Z,73.40
2022-12-18T06:02:12.464Z,66.60
2022-12-18T06:04:39.183Z,62.17
2022-12-18T06:07:05.829Z,78.28
2022-12-18T06:09:33.024Z,84.63
2022-12-18T06:11:59.827Z,125.78
2022-12-18T06:14:26.624Z,77.60
2022-12-18T06:16:53.401Z,71.45
2022-12-18T06:19:20.067Z,58.33
2022-12-18T06:21:48.003Z,59.50
2022-12-18T06:24:14.612Z,58.15
2022-12-18T06:26:41.377Z,61.60
2022-12-18T06:29:08.033Z,58.97
2022-12-18T06:31:34.772Z,62.47
2022-12-18T06:34:04.499Z,67.57
2022-12-18T06:36:31.631Z,59.70
2022-12-18T06:38:58.603Z,57.05
2022-12-18T06:41:25.324Z,58.85
2022-12-18T06:43:55.581Z,73.68
2022-12-18T06:46:24.849Z,47.53
2022-12-18T06:48:51.544Z,48.42
2022-12-18T06:51:22.705Z,55.17
2022-12-18T06:53:49.437Z,43.83
2022-12-18T06:56:16.280Z,44.50
2022-12-18T06:58:43.111Z,50.58
2022-12-18T07:01:12.182Z,44.92
2022-12-18T07:03:43.387Z,41.63
2022-12-18T07:06:18.678Z,50.42
2022-12-18T07:08:46.212Z,41.75
2022-12-18T07:11:13.192Z,51.75
2022-12-18T07:13:40.165Z,48.17
2022-12-18T07:16:24.805Z,47.40
2022-12-18T07:18:52.131Z,46.95
2022-12-18T07:21:20.548Z,50.95
2022-12-18T07:23:49.095Z,62.53
2022-12-18T07:26:18.391Z,52.33
2022-12-18T07:28:45.079Z,47.90
2022-12-18T07:31:17.937Z,47.28
2022-12-18T07:33:45.276Z,49.00
2022-12-18T07:36:12.224Z,57.17
2022-12-18T07:38:39.146Z,86.75
2022-12-18T07:41:08.373Z,68.05
2022-12-18T07:43:35.939Z,66.22
2022-12-18T07:46:03.147Z,63.88
2022-12-18T07:48:30.184Z,80.95
2022-12-18T07:51:05.260Z,68.80
2022-12-18T07:53:32.677Z,67.72
2022-12-18T07:56:26.027Z,60.50
2022-12-18T07:58:47.463Z,59.25
2022-12-18T08:01:15.184Z,62.30
2022-12-18T08:03:42.304Z,56.88
2022-12-18T08:06:10.560Z,61.35
2022-12-18T08:08:37.901Z,49.67
2022-12-18T08:11:04.663Z,54.13
2022-12-18T08:13:31.266Z,48.05
2022-12-18T08:16:08.214Z,49.85
2022-12-18T08:18:36.351Z,55.60
2022-12-18T08:21:14.308Z,54.08
2022-12-18T08:23:43.394Z,56.20
2022-12-18T08:26:11.480Z,58.83
2022-12-18T08:28:38.432Z,69.85
2022-12-18T08:31:05.657Z,53.97
2022-12-18T08:33:33.527Z,57.17
2022-12-18T08:36:00.953Z,51.83
2022-12-18T08:38:27.708Z,48.53
2022-12-18T08:41:05.841Z,59.90
2022-12-18T08:43:51.229Z,53.85
2022-12-18T08:46:22.261Z,61.00
2022-12-18T08:48:51.006Z,54.78
2022-12-18T08:51:18.235Z,60.70
2022-12-18T08:53:48.052Z,61.30
2022-12-18T08:56:15.626Z,63.45
2022-12-18T08:58:42.788Z,89.78
2022-12-18T09:01:11.632Z,103.50
2022-12-18T09:03:39.352Z,60.00
2022-12-18T09:06:07.040Z,63.78
2022-12-18T09:08:33.623Z,72.55
2022-12-18T09:11:00.189Z,93.97
2022-12-18T09:13:26.880Z,73.65
2022-12-18T09:15:55.098Z,69.03
2022-12-18T09:18:23.824Z,69.25
2022-12-18T09:20:52.828Z,61.42
2022-12-18T09:23:19.423Z,53.58
2022-12-18T09:25:45.985Z,60.53
2022-12-18T09:28:15.526Z,63.05
2022-12-18T09:30:45.223Z,60.88
2022-12-18T09:33:12.068Z,52.78
2022-12-18T09:35:40.154Z,52.88
2022-12-18T09:38:07.074Z,45.45
2022-12-18T09:40:42.785Z,53.58
2022-12-18T09:43:20.498Z,66.65
2022-12-18T09:45:56.214Z,57.78
2022-12-18T09:48:53.788Z,56.92
2022-12-18T09:51:29.721Z,48.28
2022-12-18T09:54:06.936Z,51.75
2022-12-18T09:56:39.692Z,49.40
2022-12-18T09:59:06.560Z,48.03
2022-12-18T10:01:43.128Z,45.08
2022-12-18T10:04:11.330Z,46.40
2022-12-18T10:06:47.245Z,46.58
2022-12-18T10:09:33.097Z,48.55
2022-12-18T10:12:21.050Z,52.65
2022-12-18T10:15:11.764Z,49.22
2022-12-18T10:18:17.417Z,75.38
2022-12-18T10:20:51.226Z,59.58
2022-12-18T10:23:37.046Z,45.42
2022-12-18T10:26:10.885Z,56.05
2022-12-18T10:28:40.454Z,45.00
2022-12-18T10:31:15.339Z,40.38
2022-12-18T10:33:42.258Z,53.70
2022-12-18T10:36:08.941Z,48.00
2022-12-18T10:38:35.799Z,42.90
2022-12-18T10:41:03.498Z,54.80
2022-12-18T10:43:32.575Z,49.03
2022-12-18T10:46:07.113Z,48.88
2022-12-18T10:48:37.226Z,39.97
2022-12-18T10:51:12.644Z,35.72
2022-12-18T10:53:42.899Z,46.95
2022-12-18T10:56:09.924Z,37.05
2022-12-18T10:58:39.072Z,36.47
2022-12-18T11:01:23.643Z,43.17
2022-12-18T11:04:17.246Z,35.40
2022-12-18T11:06:58.748Z,45.50
2022-12-18T11:09:30.434Z,45.08
2022-12-18T11:12:00.480Z,41.53
2022-12-18T11:14:31.769Z,38.30
2022-12-18T11:17:24.823Z,37.97
2022-12-18T11:19:54.209Z,43.50
2022-12-18T11:22:36.015Z,42.17
2022-12-18T11:25:35.963Z,45.55
2022-12-18T11:28:25.983Z,44.95
2022-12-18T11:31:13.554Z,44.20
2022-12-18T11:34:04.843Z,46.22
2022-12-18T11:36:44.348Z,52.03
2022-12-18T11:39:19.237Z,42.83
2022-12-18T11:42:10.041Z,40.38
2022-12-18T11:45:12.154Z,42.95
2022-12-18T11:47:45.368Z,49.87
2022-12-18T11:50:17.070Z,39.05
2022-12-18T11:52:43.718Z,39.78
2022-12-18T11:55:17.221Z,41.25
2022-12-18T11:57:55.922Z,41.33
2022-12-18T12:00:24.267Z,46.85
2022-12-18T12:03:12.456Z,39.97
2022-12-18T12:06:09.131Z,39.20
2022-12-18T12:08:55.144Z,40.53
2022-12-18T12:12:15.233Z,37.35
2022-12-18T12:14:53.718Z,50.80
2022-12-18T12:17:46.431Z,52.55
2022-12-18T12:20:22.825Z,51.78
2022-12-18T12:23:26.062Z,48.13
2022-12-18T12:26:24.235Z,41.45
2022-12-18T12:29:30.784Z,63.03
2022-12-18T12:32:37.839Z,145.82
2022-12-18T12:35:27.733Z,176.90
2022-12-18T12:38:28.225Z,116.57
2022-12-18T12:41:05.082Z,117.55
2022-12-18T12:43:50.517Z,189.00
2022-12-18T12:46:20.732Z,95.15
2022-12-18T12:49:20.357Z,82.32
2022-12-18T12:51:51.141Z,92.13
2022-12-18T12:54:22.350Z,152.50
2022-12-18T12:57:27.529Z,64.93
2022-12-18T13:00:10.104Z,86.47
2022-12-18T13:03:31.213Z,60.15
2022-12-18T13:06:04.361Z,62.60
2022-12-18T13:08:52.304Z,55.65
2022-12-18T13:12:07.629Z,57.03
2022-12-18T13:14:40.657Z,52.20
2022-12-18T13:17:30.491Z,52.67
2022-12-18T13:20:12.898Z,55.78
2022-12-18T13:22:49.650Z,47.63
2022-12-18T13:25:42.736Z,65.68
2022-12-18T13:28:15.194Z,70.28
2022-12-18T13:31:02.947Z,59.38
2022-12-18T13:34:23.922Z,55.67
2022-12-18T13:36:35.278Z,52.80
2022-12-18T13:39:35.892Z,57.30
2022-12-18T13:42:56.726Z,59.55
2022-12-18T13:46:19.411Z,59.30
2022-12-18T13:49:32.617Z,57.10
2022-12-18T13:51:59.270Z,68.65
2022-12-18T13:54:54.494Z,92.40
2022-12-18T13:57:34.010Z,70.68
2022-12-18T14:00:29.461Z,74.13
2022-12-18T14:02:57.430Z,54.35
2022-12-18T14:05:36.132Z,63.03
2022-12-18T14:08:14.666Z,64.70
2022-12-18T14:10:48.379Z,88.88
2022-12-18T14:13:37.880Z,75.50
2022-12-18T14:16:06.729Z,180.32
2022-12-18T14:18:45.751Z,70.65
2022-12-18T14:21:22.559Z,82.97
2022-12-18T14:23:49.761Z,84.95
2022-12-18T14:26:32.357Z,78.60
2022-12-18T14:31:29.372Z,73.80
2022-12-18T14:33:56.377Z,73.78
2022-12-18T14:36:29.100Z,81.38
2022-12-18T14:38:57.649Z,76.70
2022-12-18T14:41:25.473Z,73.85
2022-12-18T14:43:54.015Z,70.25
2022-12-18T14:46:34.749Z,76.78
2022-12-18T14:49:19.169Z,68.85
2022-12-18T14:52:09.305Z,72.40
2022-12-18T14:54:38.486Z,82.20
2022-12-18T14:57:27.403Z,83.05
2022-12-18T14:59:54.061Z,92.00
2022-12-18T15:02:29.077Z,85.30
2022-12-18T15:05:17.557Z,79.28
2022-12-18T15:07:51.009Z,174.20
2022-12-18T15:10:29.506Z,99.22
2022-12-18T15:13:23.432Z,65.60
2022-12-18T15:15:50.688Z,78.65
2022-12-18T15:18:21.101Z,60.83
2022-12-18T15:20:57.655Z,71.15
2022-12-18T15:23:47.111Z,62.45
2022-12-18T15:26:16.308Z,74.18
2022-12-18T15:28:53.468Z,83.75
2022-12-18T15:31:36.056Z,63.95
2022-12-18T15:36:42.555Z,63.40
2022-12-18T15:39:13.433Z,65.32
2022-12-18T15:41:40.405Z,76.78
2022-12-18T15:44:24.455Z,70.97
2022-12-18T15:46:51.067Z,82.97
2022-12-18T15:49:17.633Z,68.63
2022-12-18T15:51:44.566Z,65.80
2022-12-18T15:54:17.114Z,66.30
2022-12-18T15:57:02.664Z,64.63
2022-12-18T15:59:29.467Z,71.70
2022-12-18T16:01:57.529Z,76.35
2022-12-18T16:04:25.727Z,62.88
2022-12-18T16:07:14.289Z,68.72
2022-12-18T16:09:41.779Z,96.32
2022-12-18T16:12:17.358Z,140.30
2022-12-18T16:14:44.279Z,77.25
2022-12-18T16:17:12.824Z,77.65
2022-12-18T16:19:39.666Z,82.95
2022-12-18T16:22:06.682Z,90.72
2022-12-18T16:24:34.587Z,121.30
2022-12-18T16:27:01.835Z,95.53
2022-12-18T16:29:30.374Z,124.57
2022-12-18T16:31:59.482Z,120.13
2022-12-18T16:34:32.091Z,117.72
2022-12-18T16:37:05.483Z,226.15
2022-12-18T16:39:36.429Z,90.30
2022-12-18T16:42:08.170Z,79.55
2022-12-18T16:44:35.166Z,83.75
2022-12-18T16:47:03.442Z,87.00
2022-12-18T16:49:30.608Z,77.43
2022-12-18T16:52:00.952Z,67.55
2022-12-18T16:54:30.507Z,83.10
2022-12-18T16:56:58.717Z,81.70
2022-12-18T16:59:26.815Z,85.55
2022-12-18T17:01:55.788Z,66.78
2022-12-18T17:04:23.013Z,93.43
2022-12-18T17:06:51.945Z,73.75
2022-12-18T17:09:25.429Z,71.78
2022-12-18T17:11:53.575Z,70.90
2022-12-18T17:14:26.554Z,77.68
2022-12-18T17:17:20.483Z,76.18
2022-12-18T17:20:03.540Z,65.82
2022-12-18T17:22:30.647Z,70.53
2022-12-18T17:24:57.669Z,65.03
2022-12-18T17:27:26.390Z,71.25
2022-12-18T17:29:56.746Z,69.22
2022-12-18T17:32:23.365Z,75.45
2022-12-18T17:34:56.955Z,70.75
2022-12-18T17:37:25.599Z,67.97
2022-12-18T17:39:55.742Z,79.85
2022-12-18T17:42:23.003Z,75.93
2022-12-18T17:44:51.127Z,68.10
2022-12-18T17:47:17.862Z,68.57
2022-12-18T17:49:46.272Z,73.15
2022-12-18T17:52:12.953Z,67.05
2022-12-18T17:54:42.001Z,72.18
2022-12-18T17:57:11.379Z,66.45
2022-12-18T17:59:38.114Z,66.75
2022-12-18T18:02:07.256Z,67.57
2022-12-18T18:04:34.880Z,66.13
2022-12-18T18:07:01.413Z,68.70
2022-12-18T18:09:28.106Z,63.80
2022-12-18T18:12:13.312Z,65.88
2022-12-18T18:14:40.207Z,60.50
2022-12-18T18:17:07.210Z,74.10
2022-12-18T18:19:34.276Z,71.97
2022-12-18T18:22:01.627Z,64.47
2022-12-18T18:24:29.674Z,64.75
2022-12-18T18:26:56.548Z,67.82
2022-12-18T18:29:26.863Z,72.63
2022-12-18T18:31:53.815Z,81.63
2022-12-18T18:34:23.470Z,116.13
2022-12-18T18:36:50.251Z,101.00
2022-12-18T18:39:17.194Z,135.05
2022-12-18T18:41:47.863Z,68.25
2022-12-18T18:44:15.724Z,74.13
2022-12-18T18:46:42.382Z,67.65
2022-12-18T18:49:09.749Z,64.50
2022-12-18T18:51:36.319Z,67.47
2022-12-18T18:54:02.947Z,67.68
2022-12-18T18:59:16.961Z,62.85
2022-12-18T19:01:44.092Z,62.40
2022-12-18T19:04:10.900Z,61.60
2022-12-18T19:06:37.568Z,67.70
2022-12-18T19:09:06.582Z,59.50
2022-12-18T19:11:52.131Z,55.22
2022-12-18T19:14:18.847Z,76.50
2022-12-18T19:16:45.775Z,64.97
2022-12-18T19:19:13.749Z,67.72
2022-12-18T19:21:40.722Z,65.78
2022-12-18T19:24:07.899Z,62.78
2022-12-18T19:26:37.505Z,66.85
2022-12-18T19:29:06.293Z,58.67
2022-12-18T19:31:36.067Z,66.03
2022-12-18T19:34:06.653Z,61.60
2022-12-18T19:36:35.555Z,58.80
2022-12-18T19:39:07.328Z,60.00
2022-12-18T19:41:34.020Z,63.20
2022-12-18T19:44:08.091Z,66.90
2022-12-18T19:46:35.908Z,65.30
2022-12-18T19:49:02.979Z,55.35
2022-12-18T19:51:31.322Z,61.60
2022-12-18T19:54:01.071Z,53.58
2022-12-18T19:56:31.442Z,62.35
2022-12-18T19:58:58.390Z,71.07
2022-12-18T20:01:26.699Z,69.97
2022-12-18T20:03:54.662Z,60.65
2022-12-18T20:06:31.054Z,67.32
2022-12-18T20:09:01.086Z,70.85
2022-12-18T20:11:32.746Z,54.28
2022-12-18T20:14:02.244Z,52.65
2022-12-18T20:16:29.048Z,62.45
2022-12-18T20:18:57.379Z,62.53
2022-12-18T20:21:24.304Z,55.00
2022-12-18T20:23:51.288Z,66.75
2022-12-18T20:26:17.982Z,60.70
2022-12-18T20:28:44.759Z,62.08
2022-12-18T20:31:13.643Z,62.95
2022-12-18T20:33:41.704Z,62.28
2022-12-18T20:36:13.749Z,62.13
2022-12-18T20:38:41.521Z,71.63
2022-12-18T20:41:15.356Z,69.32
2022-12-18T20:43:42.391Z,75.78
2022-12-18T20:46:12.191Z,63.95
2022-12-18T20:48:39.967Z,68.50
2022-12-18T20:51:09.680Z,65.88
2022-12-18T20:53:36.583Z,76.03
2022-12-18T20:56:17.776Z,78.22
2022-12-18T20:58:48.521Z,65.18
2022-12-18T21:01:19.596Z,63.70
2022-12-18T21:03:47.087Z,73.28
2022-12-18T21:06:15.722Z,57.38
2022-12-18T21:08:42.850Z,71.47
2022-12-18T21:11:54.165Z,72.43
2022-12-18T21:14:26.360Z,67.53
2022-12-18T21:16:55.854Z,58.55
2022-12-18T21:19:25.391Z,61.33
2022-12-18T21:21:52.990Z,58.88
2022-12-18T21:24:20.157Z,62.50
2022-12-18T21:26:48.320Z,69.35
2022-12-18T21:29:17.968Z,65.18
2022-12-18T21:31:45.451Z,62.47
2022-12-18T21:34:18.715Z,70.20
2022-12-18T21:36:45.841Z,62.42
2022-12-18T21:39:14.233Z,63.67
2022-12-18T21:42:01.292Z,65.55
2022-12-18T21:44:28.081Z,62.13
2022-12-18T21:46:58.358Z,67.63
2022-12-18T21:49:30.651Z,53.15
2022-12-18T21:51:58.398Z,63.90
2022-12-18T21:54:26.501Z,70.00
2022-12-18T21:56:59.506Z,66.63
2022-12-18T21:59:40.352Z,64.15
2022-12-18T22:02:15.964Z,66.15
2022-12-18T22:04:43.890Z,60.95
2022-12-18T22:07:10.714Z,63.28
2022-12-18T22:09:38.207Z,66.07
2022-12-18T22:12:05.504Z,73.80
2022-12-18T22:14:32.396Z,71.03
2022-12-18T22:16:59.033Z,64.15
2022-12-18T22:19:26.686Z,69.35
2022-12-18T22:21:54.037Z,69.80
2022-12-18T22:24:25.574Z,72.38
2022-12-18T22:27:01.782Z,67.77
2022-12-18T22:29:47.507Z,63.17
2022-12-18T22:32:30.972Z,77.35
2022-12-18T22:35:07.210Z,69.55
2022-12-18T22:37:35.933Z,63.22
2022-12-18T22:40:05.134Z,74.15
2022-12-18T22:42:32.725Z,68.43
2022-12-18T22:45:00.385Z,60.90
2022-12-18T22:47:30.019Z,64.38
2022-12-18T22:49:58.051Z,58.35
2022-12-18T22:52:24.815Z,57.60
2022-12-18T22:54:53.379Z,62.55
2022-12-18T22:57:21.668Z,57.45
2022-12-18T22:59:49.102Z,67.68
2022-12-18T23:02:15.811Z,55.53
2022-12-18T23:04:42.469Z,53.95
2022-12-18T23:07:09.051Z,57.70
2022-12-18T23:09:37.892Z,54.47
2022-12-18T23:12:05.077Z,54.58
2022-12-18T23:14:31.874Z,59.40
2022-12-18T23:16:58.518Z,60.05
2022-12-18T23:19:25.615Z,45.05
2022-12-18T23:21:52.204Z,48.55
2022-12-18T23:24:21.358Z,57.70
2022-12-18T23:26:47.964Z,52.40
2022-12-18T23:29:14.563Z,45.38
2022-12-18T23:31:41.220Z,51.00
2022-12-18T23:34:08.818Z,45.63
2022-12-18T23:36:45.466Z,55.60
2022-12-18T23:39:22.339Z,49.97
2022-12-18T23:42:00.397Z,44.47
2022-12-18T23:44:27.415Z,50.45
2022-12-18T23:46:54.520Z,60.55
2022-12-18T23:49:21.194Z,48.10
2022-12-18T23:51:47.917Z,52.78
2022-12-18T23:54:14.516Z,56.30
2022-12-18T23:56:41.108Z,53.92
2022-12-18T23:59:07.736Z,49.97
